Chandler, AZ (85249)

7:32 AM MST on September 16, 2014 (GMT -0700)
Ocotillo | Change Station
CLOSE
Current Station
Personal Weather Station
Location: Chandler, AZ
Elevation: 1240 ft
Nearby Weather Stations
Active Advisory: Flash Flood Watch Active Notice: Public Information Statement

Elev 1240 ft 33.25 °N, 111.81 °W | Updated 55 seconds ago

Mostly Cloudy
Mostly Cloudy
82.6 °F
Feels Like 86 °F
N
0.0
Wind Variable Wind from SSE
Gusts 0.0 mph

Today
High -- | Low -- °F
--% Chance of Precip.
Yesterday
High -- | Low -- °F
Precip. -- in
6:11 AM 6:31 PM
Last Quarter, 45% visible
Pressure 29.95 in
Visibility 40.0 miles
Clouds Mostly Cloudy 10000 ft
Mostly Cloudy 20000 ft
Heat Index 86 °F
Dew Point 69 °F
Humidity 63%
Rainfall 0.00 in
Snow Depth 0 in , 0 in , 0 in
UV 0 out of 12
Pollen 6.30 out of 12
Ozone Good
PM2.5 Good
Flu Activity Not available.
METAR KCHD 161350Z 09004KT 40SM BKN100 BKN200 29/20 A2995

More Conditions Fewer Conditions

Pressure 29.95 in
Visibility 40.0 miles
Clouds Mostly Cloudy 10000 ft
Mostly Cloudy 20000 ft
Heat Index 86 °F
Dew Point 69 °F
Humidity 63%
Rainfall 0.00 in
Snow Depth 0 in , 0 in , 0 in
UV 0 out of 12
Pollen 6.30 out of 12
Ozone Good
PM2.5 Good
Flu Activity Not available.
METAR KCHD 161350Z 09004KT 40SM BKN100 BKN200 29/20 A2995

More Conditions Fewer Conditions

10-Day Weather Forecast

Almanac

Astronomy

Sep. 16, 2014 Rise Set
Actual Time 6:11 AM MST 6:31 PM MST
Civil Twilight 5:46 AM MST 6:56 PM MST
Nautical Twilight 5:17 AM MST 7:25 PM MST
Astronomical Twilight 4:47 AM MST 7:55 PM MST
Moon No Moon Rise 1:45 PM MST
Length of Visible Light 13h 10m
Length of Day
12h 20m
Tomorrow will be 2m 2s shorter.
Last Quarter, 45% of the Moon is Illuminated
Today
Last Quarter
Sep 24
New
Oct 1
First Quarter
Oct 8
Full
Oct 15
Last Quarter

Today's Extremes

State Highs State Lows

Community

WunderPhotos

Upload Photos

1,753,789 photos uploaded!

Nearby

Air Quality

  Air Quality AQ Index Pollutant
Yesterday Good
OZONE
Yesterday Good
PM10
Current Good
OZONE
Current Good
PM2.5
Tuesday Good
OZONE
Tuesday Good
PM10
Tuesday Good
CO
Wednesday Good
OZONE
Wednesday Good
PM10
Wednesday Good
CO

Snow Depth

Station Depth Elevation
Happy Jack 0 in 7630 ft
Maverick Fork 0 in 9200 ft
Fry 0 in 7200 ft
Coronado Trail 0 in 8400 ft
Snowslide Canyon 0 in 9730 ft

Earthquake Activity

City Distance Mag. Time & Date
No recent earthquake activity has been reported nearby.
Minimum magnitude displayed is 2.5.

Coastal Water Temperatures

Place Temperature
No Stations Reporting

Nearby Weather Stations